createdAt,value
2019-03-05T00:09:53.660Z,53.5
2019-03-05T00:25:10.945Z,52.8
2019-03-05T00:40:23.712Z,52.2
2019-03-05T00:55:36.526Z,51.9
2019-03-05T01:10:38.234Z,51.6
2019-03-05T01:26:02.203Z,51.7
2019-03-05T01:41:15.014Z,50.9
2019-03-05T01:56:27.708Z,50
2019-03-05T02:11:40.578Z,49
2019-03-05T02:26:49.206Z,48.7
2019-03-05T02:42:06.813Z,49.3
2019-03-05T02:57:19.774Z,49.9
2019-03-05T03:12:32.646Z,50.5
2019-03-05T03:27:34.409Z,50.4
2019-03-05T03:42:58.776Z,51.2
2019-03-05T03:58:11.875Z,50.9
2019-03-05T04:13:24.848Z,50.1
2019-03-05T04:28:37.874Z,49.7
2019-03-05T04:43:46.479Z,49
2019-03-05T04:59:03.921Z,48.7
2019-03-05T05:14:16.922Z,49
2019-03-05T05:29:29.888Z,48.4
2019-03-05T05:44:31.609Z,47.8
2019-03-05T05:59:55.844Z,47.5
2019-03-05T06:15:08.768Z,46.9
2019-03-05T06:30:21.831Z,47.5
2019-03-05T06:45:34.813Z,46.7
2019-03-05T07:00:43.585Z,43.9
2019-03-05T07:16:01.039Z,40.2
2019-03-05T07:31:14.107Z,45.2
2019-03-05T07:46:27.160Z,40.5
2019-03-05T08:01:34.180Z,38.1
2019-03-05T08:16:53.829Z,39.8
2019-03-05T08:32:07.145Z,42.6
2019-03-05T08:47:20.683Z,41.4
2019-03-05T09:02:23.071Z,39.7
2019-03-05T09:17:47.784Z,38.6
2019-03-05T09:33:01.445Z,36.5
2019-03-05T09:48:15.210Z,38
2019-03-05T10:03:28.769Z,39.2
2019-03-05T10:18:39.646Z,40
2019-03-05T10:33:56.049Z,39.6
2019-03-05T10:49:10.111Z,37.6
2019-03-05T11:04:23.908Z,39.6
2019-03-05T11:19:27.599Z,42.6
2019-03-05T11:34:51.310Z,39.1
2019-03-05T11:50:04.976Z,48.2
2019-03-05T12:05:18.523Z,44.9
2019-03-05T12:20:32.105Z,54.5
2019-03-05T12:35:42.653Z,67.3
2019-03-05T12:50:57.609Z,71.8
2019-03-05T13:06:10.292Z,74.6
2019-03-05T13:21:22.853Z,74
2019-03-05T13:36:27.582Z,72.8
2019-03-05T13:51:48.097Z,71.1
2019-03-05T14:07:01.201Z,67
2019-03-05T14:22:14.349Z,67.5
2019-03-05T14:37:27.374Z,69.1
2019-03-05T14:52:40.343Z,67.4
2019-03-05T15:07:53.477Z,64.5
2019-03-05T15:23:06.973Z,60.3
2019-03-05T15:38:20.460Z,59.7
2019-03-05T15:53:28.003Z,51.7
2019-03-05T16:08:47.395Z,58
2019-03-05T16:24:02.837Z,57.3
2019-03-05T16:39:14.449Z,62.2
2019-03-05T16:54:27.593Z,62.9
2019-03-05T17:09:40.583Z,64.6
2019-03-05T17:24:53.510Z,65.8
2019-03-05T17:40:06.516Z,62.7
2019-03-05T17:55:27.226Z,63
2019-03-05T18:10:32.133Z,63.5
2019-03-05T18:25:44.894Z,64
2019-03-05T18:40:57.459Z,65.5
2019-03-05T18:56:10.045Z,66.8
2019-03-05T19:11:22.607Z,67.5
2019-03-05T19:26:35.133Z,68.1
2019-03-05T19:41:56.456Z,68.1
2019-03-05T19:57:00.183Z,67.2
2019-03-05T20:12:12.921Z,66.9
2019-03-05T20:27:19.969Z,69.2
2019-03-05T20:42:38.109Z,66.4
2019-03-05T20:57:50.641Z,67.3
2019-03-05T21:13:03.151Z,68
2019-03-05T21:28:15.513Z,67.2
2019-03-05T21:43:28.425Z,66.8
2019-03-05T21:58:40.820Z,66.7
2019-03-05T22:13:52.731Z,66.5
2019-03-05T22:29:05.239Z,65.5
2019-03-05T22:44:13.164Z,66.8
2019-03-05T22:59:30.029Z,67.5
2019-03-05T23:14:42.329Z,67.6
2019-03-05T23:29:54.681Z,68.3
2019-03-05T23:45:07.150Z,68.1
